Time;durP1;ratioP1;P1;durP2;ratioP2;P2;SDS_P1;SDS_P2;PMS_P1;PMS_P2;Temp;Humidity;BMP_temperature;BMP_pressure;BME280_temperature;BME280_humidity;BME280_pressure;Samples;Min_cycle;Max_cycle;Signal;HPM_P1;HPM_P2
2023/08/19 02:52:28;;;;;;;;;;;18.40;99.90;;;;;;5102528;28;19920;-69
2023/08/19 03:16:30;;;;;;;;;;;18.30;99.90;;;;;;5103614;28;19975;-69
2023/08/19 03:54:52;;;;;;;;;;;17.90;99.90;;;;;;5061287;28;19920;-69
2023/08/19 04:03:44;;;;;;;;;;;17.90;99.90;;;;;;5086522;28;19919;-69
2023/08/19 04:06:19;;;;;;;;;;;17.80;99.90;;;;;;5098331;28;20420;-70
2023/08/19 04:09:08;;;;;;;;;;;17.90;99.90;;;;;;5104472;28;19920;-69
2023/08/19 04:11:55;;;;;;;;;;;17.80;99.90;;;;;;5107398;28;19939;-74
2023/08/19 04:17:40;;;;;;;;;;;17.80;99.90;;;;;;5085135;28;19917;-69
2023/08/19 04:32:25;;;;;;;;;;;17.70;99.90;;;;;;5086122;28;19921;-68
2023/08/19 04:35:08;;;;;;;;;;;17.70;99.90;;;;;;5085714;28;19946;-69
2023/08/19 04:40:50;;;;;;;;;;;17.70;99.90;;;;;;5063605;28;20015;-69
2023/08/19 04:49:43;;;;;;;;;;;17.70;99.90;;;;;;5064117;28;19976;-69
2023/08/19 05:01:45;;;;;;;;;;;17.70;99.90;;;;;;5105749;28;19975;-71
2023/08/19 05:10:55;;;;;;;;;;;17.70;99.90;;;;;;5085701;28;19954;-71
2023/08/19 05:13:51;;;;;;;;;;;17.70;99.90;;;;;;5085184;28;19920;-69
2023/08/19 05:38:21;;;;;;;;;;;18.10;99.90;;;;;;5084370;28;19967;-69
2023/08/19 05:44:06;;;;;;;;;;;18.40;99.90;;;;;;5099251;28;19983;-69
2023/08/19 05:53:03;;;;;;;;;;;18.60;99.90;;;;;;5105098;28;19918;-70
2023/08/19 06:07:42;;;;;;;;;;;19.10;99.90;;;;;;5103649;28;19980;-69
2023/08/19 06:13:33;;;;;;;;;;;19.20;99.90;;;;;;5084197;28;19936;-70
2023/08/19 06:25:16;;;;;;;;;;;19.60;99.90;;;;;;5082947;28;19970;-70
2023/08/19 06:40:17;;;;;;;;;;;20.20;99.90;;;;;;5084062;28;20215;-70
2023/08/19 11:37:57;;;;;;;;;;;31.50;99.90;;;;;;5094663;28;20171;-77
2023/08/19 11:40:32;;;;;;;;;;;31.70;99.90;;;;;;5105490;28;19935;-79
2023/08/19 11:43:05;;;;;;;;;;;31.70;99.90;;;;;;5103551;28;19962;-78
2023/08/19 11:45:34;;;;;;;;;;;31.70;99.90;;;;;;5107163;28;20235;-77
2023/08/19 11:48:01;;;;;;;;;;;31.90;99.90;;;;;;5096026;28;19980;-78
2023/08/19 11:50:34;;;;;;;;;;;32.00;99.90;;;;;;5099880;28;19974;-78
2023/08/19 11:53:03;;;;;;;;;;;32.10;99.90;;;;;;5106296;28;19920;-77
2023/08/19 11:55:30;;;;;;;;;;;32.20;99.90;;;;;;5105694;28;19920;-77
2023/08/19 11:57:56;;;;;;;;;;;32.20;99.90;;;;;;5107393;28;19979;-77
2023/08/19 12:00:25;;;;;;;;;;;32.20;99.90;;;;;;5107830;28;19920;-77
2023/08/19 12:02:52;;;;;;;;;;;32.30;99.90;;;;;;5103882;28;19983;-77
2023/08/19 12:14:25;;;;;;;;;;;32.50;99.90;;;;;;5090113;28;19920;-77
2023/08/19 12:23:10;;;;;;;;;;;33.00;99.90;;;;;;5043413;28;19956;-76
2023/08/19 12:25:39;;;;;;;;;;;33.20;99.90;;;;;;5099453;28;19955;-77
2023/08/19 12:28:17;;;;;;;;;;;33.30;99.90;;;;;;5107699;28;19920;-76
2023/08/19 12:30:46;;;;;;;;;;;33.40;99.90;;;;;;5099855;28;19921;-77
2023/08/19 12:33:25;;;;;;;;;;;33.50;99.90;;;;;;5107796;28;19920;-77
2023/08/19 12:35:58;;;;;;;;;;;33.50;99.90;;;;;;5095951;28;19924;-77
2023/08/19 12:38:53;;;;;;;;;;;33.60;99.90;;;;;;5108201;28;20116;-76
2023/08/19 12:41:21;;;;;;;;;;;33.70;99.90;;;;;;5103116;28;20103;-78
2023/08/19 12:43:48;;;;;;;;;;;33.80;99.90;;;;;;5085785;28;19920;-78
2023/08/19 12:46:21;;;;;;;;;;;33.80;99.90;;;;;;5085968;28;19920;-78
2023/08/19 12:48:48;;;;;;;;;;;33.90;99.90;;;;;;5106564;28;20242;-77
2023/08/19 12:51:17;;;;;;;;;;;34.00;99.90;;;;;;5107098;28;19920;-79
2023/08/19 12:53:43;;;;;;;;;;;34.20;99.90;;;;;;5102874;28;19966;-77
2023/08/19 12:56:10;;;;;;;;;;;34.30;99.90;;;;;;5109010;28;19951;-76
2023/08/19 12:58:37;;;;;;;;;;;34.30;99.90;;;;;;5106780;28;19927;-74
2023/08/19 13:01:04;;;;;;;;;;;34.40;99.90;;;;;;5107890;28;19988;-77
2023/08/19 13:03:32;;;;;;;;;;;34.50;99.90;;;;;;5108752;28;19929;-77
2023/08/19 13:05:59;;;;;;;;;;;34.60;99.90;;;;;;5101448;28;19963;-77
2023/08/19 13:08:25;;;;;;;;;;;34.70;99.90;;;;;;5107293;28;19930;-78
2023/08/19 13:10:52;;;;;;;;;;;34.80;99.90;;;;;;5109777;28;20171;-77
2023/08/19 13:13:18;;;;;;;;;;;34.80;99.90;;;;;;5108461;28;19951;-78
2023/08/19 13:15:45;;;;;;;;;;;34.80;99.90;;;;;;5107267;28;19983;-78
2023/08/19 13:18:12;;;;;;;;;;;34.80;99.90;;;;;;5109385;28;19983;-77
2023/08/19 13:20:41;;;;;;;;;;;34.80;99.90;;;;;;5107005;28;20234;-77
2023/08/19 13:23:07;;;;;;;;;;;34.80;99.90;;;;;;5109877;28;19959;-77
2023/08/19 13:25:34;;;;;;;;;;;34.80;99.90;;;;;;5109568;28;19955;-78
2023/08/19 13:28:01;;;;;;;;;;;34.80;99.90;;;;;;5109784;28;19979;-77
2023/08/19 13:30:27;;;;;;;;;;;34.90;99.90;;;;;;5108992;28;19926;-77
2023/08/19 13:32:54;;;;;;;;;;;35.00;99.90;;;;;;5106984;28;19920;-78
2023/08/19 13:35:21;;;;;;;;;;;35.10;99.90;;;;;;5096229;28;20088;-77
2023/08/19 13:37:49;;;;;;;;;;;35.10;99.90;;;;;;5086547;28;19959;-77
2023/08/19 13:40:15;;;;;;;;;;;35.10;99.90;;;;;;5090074;28;19932;-77
2023/08/19 13:42:42;;;;;;;;;;;35.10;99.90;;;;;;5096235;28;19973;-77
2023/08/19 13:48:23;;;;;;;;;;;35.20;99.90;;;;;;5055614;28;19992;-78
2023/08/19 13:50:50;;;;;;;;;;;35.40;99.90;;;;;;5091686;28;19983;-77
2023/08/19 13:53:18;;;;;;;;;;;35.50;99.90;;;;;;5090776;28;19942;-77
2023/08/19 13:55:45;;;;;;;;;;;35.60;99.90;;;;;;5098394;28;19920;-77
2023/08/19 13:58:11;;;;;;;;;;;35.70;99.90;;;;;;5090645;28;19920;-77
2023/08/19 14:00:38;;;;;;;;;;;35.80;99.90;;;;;;5099914;28;19986;-77
2023/08/19 14:03:05;;;;;;;;;;;35.90;99.90;;;;;;5107535;28;19946;-77
2023/08/19 14:05:31;;;;;;;;;;;35.90;99.90;;;;;;5104172;28;19984;-77
2023/08/19 14:07:58;;;;;;;;;;;36.00;98.10;;;;;;5107408;28;20009;-77
2023/08/19 14:10:28;;;;;;;;;;;36.00;99.90;;;;;;5107434;28;19920;-78
2023/08/19 14:12:55;;;;;;;;;;;36.10;99.90;;;;;;5105413;28;19942;-76
2023/08/19 14:15:21;;;;;;;;;;;36.20;99.90;;;;;;5103610;28;19920;-76
2023/08/19 14:17:49;;;;;;;;;;;36.40;99.90;;;;;;5099134;28;19928;-78
2023/08/19 14:20:16;;;;;;;;;;;36.40;98.80;;;;;;5102292;28;19927;-77
2023/08/19 14:22:43;;;;;;;;;;;36.30;97.80;;;;;;5101735;28;19920;-82
2023/08/19 14:25:10;;;;;;;;;;;36.40;96.60;;;;;;5116628;28;19987;-76
2023/08/19 14:27:39;;;;;;;;;;;36.40;97.70;;;;;;5096333;28;19928;-76
2023/08/19 14:30:06;;;;;;;;;;;36.50;96.80;;;;;;5109229;28;19920;-77
2023/08/19 14:32:33;;;;;;;;;;;36.50;96.60;;;;;;5125353;28;20234;-78
2023/08/19 14:35:00;;;;;;;;;;;36.50;96.40;;;;;;5107313;28;20038;-77
2023/08/19 14:37:26;;;;;;;;;;;36.60;97.50;;;;;;5124350;28;20204;-76
2023/08/19 14:39:53;;;;;;;;;;;36.60;98.00;;;;;;5112615;28;19983;-77
2023/08/19 14:42:19;;;;;;;;;;;36.60;95.90;;;;;;5101434;28;19979;-77
2023/08/19 14:44:47;;;;;;;;;;;36.70;97.80;;;;;;5099629;28;19920;-76
2023/08/19 14:47:14;;;;;;;;;;;36.80;97.60;;;;;;5088350;28;19952;-77
2023/08/19 14:49:40;;;;;;;;;;;36.80;96.70;;;;;;5104688;28;19924;-77
2023/08/19 14:52:07;;;;;;;;;;;36.70;95.10;;;;;;5104131;28;19986;-77
2023/08/19 14:54:34;;;;;;;;;;;36.60;97.30;;;;;;5103656;28;19926;-77
2023/08/19 14:57:01;;;;;;;;;;;36.40;95.80;;;;;;5104717;28;19920;-77
2023/08/19 14:59:29;;;;;;;;;;;36.20;95.90;;;;;;5101151;28;19987;-78
2023/08/19 15:01:57;;;;;;;;;;;36.00;95.00;;;;;;5086554;28;19921;-77
2023/08/19 15:04:26;;;;;;;;;;;36.10;95.30;;;;;;5091472;28;19980;-78
2023/08/19 15:06:53;;;;;;;;;;;36.10;95.20;;;;;;5104917;28;19955;-76
2023/08/19 15:09:19;;;;;;;;;;;36.20;96.50;;;;;;5104555;28;19987;-77
2023/08/19 15:11:46;;;;;;;;;;;36.20;96.00;;;;;;5084621;28;19920;-78
2023/08/19 15:14:13;;;;;;;;;;;36.30;96.30;;;;;;5086535;28;19991;-76
2023/08/19 15:16:40;;;;;;;;;;;36.30;96.20;;;;;;5089216;28;20235;-76
2023/08/19 15:53:06;;;;;;;;;;;36.10;94.80;;;;;;4961542;28;19927;-77
2023/08/19 15:55:40;;;;;;;;;;;36.10;95.60;;;;;;5069980;28;19963;-77
2023/08/19 15:58:07;;;;;;;;;;;35.90;95.10;;;;;;5101146;28;19924;-79
2023/08/19 16:16:24;;;;;;;;;;;35.00;95.80;;;;;;4985648;28;19941;-70
2023/08/19 22:00:28;;;;;;;;;;;25.80;99.90;;;;;;5062363;28;19956;-70
2023/08/19 22:21:17;;;;;;;;;;;25.40;99.90;;;;;;4989805;28;19925;-73
